Gold Bridge, Canada
Current Conditions -  °F | °C
As of 5:00 AM on Thursday 23 Oct 2014 (Local Time) from CYIN Reporting Station
Clear Clear  
Wind Chill: 34°   Ceiling: Unl
Heat Index: 41°   Visibility: 9mi
Dew Point: 32°   Wind: 12mph
Humidity: 70%   Direction: 150°SSE
Pressure: 29.5"   Gusts: 21mph
Location:  50.85°N, 122.85°W
Report Text: CYIN 231200Z AUTO 15010G18KT 9SM CLR 05/M00 A2950 RMK SLP997 DENSITY ALT 3800FT
Loading
Personal Weather Stations






























Interactive Weather Map
Tropical Storm Tracking
New forecast layout! Learn more

10-Day Weather Forecast

Advertisements
Track Severe Weather on mobile